Weather reports worldwide

Advertisment
Catanzaro, Italy (16365): temperature & dewpoint: 30.07.2020 04:00:00 - 05.08.2020 04:00:00 (CEST)Catanzaro, Italy (16365): wind speed: 30.07.2020 04:00:00 - 05.08.2020 04:00:00 (CEST)Catanzaro, Italy (16365): wind direction: 30.07.2020 04:00:00 - 05.08.2020 04:00:00 (CEST)Catanzaro, Italy (16365): reduced air pressure: 30.07.2020 04:00:00 - 05.08.2020 04:00:00 (CEST)Catanzaro, Italy (16365): precipitation: 30.07.2020 04:00:00 - 05.08.2020 04:00:00 (CEST)
Date & Time tt [°C] td [°C] ff [km/h] ff [kn] dd ppp [hPa] rr [mm]
05.08.2020 04:00:00 - - - - - - -
05.08.2020 03:00:00 22,1 13,4 18 10 NW 1007,5 -
05.08.2020 02:00:00 22,0 13,0 18 10 WNW 1007,8 -
05.08.2020 01:00:00 21,7 14,3 13 7 WNW 1008,4 -
05.08.2020 00:00:00 21,5 16,8 2 1 WSW 1008,6 -
04.08.2020 23:00:00 21,9 17,8 2 1 WNW 1008,5 -
04.08.2020 22:00:00 22,0 18,7 11 6 WNW 1008,6 -
04.08.2020 21:00:00 22,2 19,5 21 11 NW 1007,8 -
04.08.2020 20:00:00 25,3 17,9 11 6 W 1007,3 0,0
04.08.2020 19:00:00 26,1 16,3 13 7 W 1007,6 -
04.08.2020 18:00:00 27,1 17,5 13 7 WNW 1007,2 -
04.08.2020 17:00:00 28,1 16,0 15 8 WNW 1006,8 -
04.08.2020 16:00:00 28,9 17,1 24 13 WNW 1007,0 -
04.08.2020 15:00:00 29,4 17,5 18 10 SE 1007,1 -
04.08.2020 14:00:00 27,2 20,5 22 12 S 1007,7 0,0
04.08.2020 13:00:00 26,1 20,8 11 6 S 1007,9 -
04.08.2020 12:00:00 28,3 17,8 11 6 W 1007,6 -
04.08.2020 11:00:00 27,1 20,9 2 1 W 1007,6 -
04.08.2020 10:00:00 25,0 20,2 15 8 WNW 1008,1 -
04.08.2020 09:00:00 24,7 19,9 16 9 W 1008,2 -
04.08.2020 08:00:00 24,2 19,6 8 4 W 1007,7 0,0
04.08.2020 07:00:00 24,2 19,2 0 0 N 1007,1 -
04.08.2020 06:00:00 23,5 19,2 22 12 WNW 1007,5 -
04.08.2020 05:00:00 23,7 18,9 16 9 WNW 1007,7 -
04.08.2020 04:00:00 23,6 19,1 24 13 WNW 1008,1 -
04.08.2020 03:00:00 24,3 17,2 18 10 WNW 1007,8 -
04.08.2020 02:00:00 24,5 16,9 24 13 WNW 1007,5 0,0
04.08.2020 01:00:00 24,6 15,7 18 10 W 1007,8 -
04.08.2020 00:00:00 24,8 12,4 11 6 NW 1007,9 -
03.08.2020 23:00:00 25,5 15,4 5 3 NW 1007,9 -
03.08.2020 22:00:00 25,7 15,9 13 7 W 1007,8 -
03.08.2020 21:00:00 26,5 15,2 13 7 NW 1007,3 -
03.08.2020 20:00:00 26,6 18,9 4 2 W 1007,3 0,0
03.08.2020 19:00:00 26,5 21,2 0 0 N 1007,3 -
03.08.2020 18:00:00 26,9 21,4 8 4 ESE 1007,5 -
03.08.2020 17:00:00 28,0 21,2 11 6 SE 1007,6 -
03.08.2020 16:00:00 29,1 20,2 11 6 ESE 1007,8 -
03.08.2020 15:00:00 29,3 19,9 8 4 ESE 1008,3 -
03.08.2020 14:00:00 29,3 18,7 0 0 N 1008,7 0,0
03.08.2020 13:00:00 29,5 18,3 0 0 N 1009,1 -
03.08.2020 12:00:00 29,1 17,6 4 2 ESE 1009,5 -
03.08.2020 11:00:00 30,2 15,1 9 5 S 1009,3 -
03.08.2020 10:00:00 29,9 13,2 0 0 N 1009,3 -
03.08.2020 09:00:00 27,9 12,3 0 0 N 1009,6 -
03.08.2020 08:00:00 27,4 11,8 0 0 N 1009,6 0,0
03.08.2020 07:00:00 27,0 11,1 0 0 N 1009,1 -
03.08.2020 06:00:00 27,4 10,1 4 2 NNW 1009,1 -
03.08.2020 05:00:00 26,6 11,5 13 7 WNW 1009,2 -
03.08.2020 04:00:00 25,9 11,6 11 6 WNW 1009,4 -
03.08.2020 03:00:00 25,9 12,3 13 7 WNW 1009,8 -
03.08.2020 02:00:00 25,5 14,2 16 9 WNW 1010,1 0,0
03.08.2020 01:00:00 25,8 14,8 11 6 WNW 1010,3 -
03.08.2020 00:00:00 26,5 13,9 22 12 NW 1010,2 -
02.08.2020 23:00:00 26,5 15,5 11 6 WNW 1010,3 -
02.08.2020 22:00:00 26,1 16,6 15 8 WNW 1010,6 -
02.08.2020 21:00:00 26,5 16,4 15 8 WNW 1010,3 -
02.08.2020 20:00:00 26,6 19,4 15 8 W 1010,0 0,0
02.08.2020 19:00:00 27,8 17,9 16 9 W 1009,7 -
02.08.2020 18:00:00 28,7 17,8 15 8 W 1009,5 -
02.08.2020 17:00:00 28,7 18,1 9 5 WNW 1009,8 -
02.08.2020 16:00:00 28,9 18,3 15 8 WNW 1009,8 -
02.08.2020 15:00:00 29,0 17,8 13 7 W 1009,8 -
02.08.2020 14:00:00 28,7 19,0 22 12 W 1010,3 0,0
02.08.2020 13:00:00 27,7 18,6 26 14 WNW 1010,6 -
02.08.2020 12:00:00 27,0 19,8 26 14 W 1010,5 -
02.08.2020 11:00:00 26,0 19,6 21 11 WNW 1010,3 -
02.08.2020 10:00:00 25,7 19,3 24 13 W 1010,2 -
02.08.2020 09:00:00 24,5 19,1 18 10 W 1010,3 -
02.08.2020 08:00:00 23,5 17,9 24 13 WNW 1010,4 0,0
02.08.2020 07:00:00 22,9 17,7 16 9 WNW 1010,4 -
02.08.2020 06:00:00 22,7 18,4 15 8 W 1010,4 -
02.08.2020 05:00:00 22,7 18,2 18 10 WNW 1010,2 -
02.08.2020 04:00:00 23,0 18,0 15 8 WNW 1010,2 -
02.08.2020 03:00:00 23,0 18,3 18 10 WNW 1010,3 -
02.08.2020 02:00:00 23,2 18,5 22 12 WNW 1010,6 0,0
02.08.2020 01:00:00 23,3 19,0 26 14 WNW 1011,0 -
02.08.2020 00:00:00 23,4 19,1 31 17 WNW 1011,1 -
01.08.2020 23:00:00 23,6 19,3 26 14 WNW 1011,3 -
01.08.2020 22:00:00 23,6 19,3 18 10 WNW 1010,9 -
01.08.2020 21:00:00 23,9 20,0 13 7 WNW 1011,0 -
01.08.2020 20:00:00 24,5 19,5 21 11 WNW 1010,4 0,0
01.08.2020 19:00:00 25,2 19,7 28 15 NW 1010,3 -
01.08.2020 18:00:00 26,4 19,7 26 14 WNW 1009,9 -
01.08.2020 17:00:00 27,9 19,6 22 12 WNW 1010,6 -
01.08.2020 16:00:00 27,7 19,2 22 12 WNW 1010,6 -
01.08.2020 15:00:00 27,8 20,1 26 14 WNW 1010,5 -
01.08.2020 14:00:00 27,4 19,7 29 16 WNW 1011,2 0,0
01.08.2020 13:00:00 27,1 20,6 15 8 WNW 1012,0 -
01.08.2020 12:00:00 27,0 20,5 28 15 WNW 1012,4 -
01.08.2020 11:00:00 26,2 20,5 16 9 WNW 1012,6 -
01.08.2020 10:00:00 25,4 20,4 22 12 W 1012,9 -
01.08.2020 09:00:00 24,9 19,4 24 13 W 1012,9 -
01.08.2020 08:00:00 23,9 18,9 22 12 W 1013,0 0,0
01.08.2020 07:00:00 23,5 19,2 22 12 W 1012,8 -
01.08.2020 06:00:00 23,9 18,7 21 11 NW 1012,7 -
01.08.2020 05:00:00 23,6 19,7 34 18 WNW 1012,5 -
01.08.2020 04:00:00 23,7 19,8 22 12 WNW 1012,9 -
01.08.2020 03:00:00 23,7 19,6 5 3 WNW 1013,4 -
01.08.2020 02:00:00 23,5 20,0 18 10 W 1013,7 0,0
01.08.2020 01:00:00 23,8 20,1 26 14 W 1014,7 -
01.08.2020 00:00:00 24,3 19,3 22 12 W 1015,0 -
31.07.2020 23:00:00 24,4 20,5 24 13 WNW 1014,4 -
31.07.2020 22:00:00 24,2 21,1 31 17 WNW 1014,6 -
31.07.2020 21:00:00 24,5 21,2 24 13 WNW 1014,3 -
31.07.2020 20:00:00 25,7 20,9 26 14 WNW 1014,0 0,0
31.07.2020 19:00:00 27,2 20,7 15 8 WNW 1013,5 -
31.07.2020 18:00:00 27,6 20,4 29 16 WNW 1013,7 -
31.07.2020 17:00:00 28,8 19,9 26 14 WNW 1013,9 -
31.07.2020 16:00:00 29,3 19,0 31 17 W 1014,1 -
31.07.2020 15:00:00 29,7 19,1 16 9 WNW 1014,5 -
31.07.2020 14:00:00 30,4 19,7 18 10 W 1014,6 0,0
31.07.2020 13:00:00 30,4 19,1 18 10 W 1015,0 -
31.07.2020 12:00:00 30,4 19,1 9 5 NE 1015,2 -
31.07.2020 11:00:00 29,2 19,5 9 5 W 1015,5 -
31.07.2020 10:00:00 28,0 17,8 11 6 W 1015,8 -
31.07.2020 09:00:00 26,8 15,1 16 9 W 1015,9 -
31.07.2020 08:00:00 25,8 13,2 16 9 WNW 1015,9 0,0
31.07.2020 07:00:00 25,1 12,3 13 7 W 1015,9 -
31.07.2020 06:00:00 24,3 14,0 15 8 WNW 1016,0 -
31.07.2020 05:00:00 23,5 16,5 16 9 WNW 1016,2 -
31.07.2020 04:00:00 23,4 17,3 16 9 WNW 1016,3 -
31.07.2020 03:00:00 24,0 17,4 21 11 W 1016,4 -
31.07.2020 02:00:00 24,9 17,0 18 10 NW 1016,6 0,0
31.07.2020 01:00:00 24,9 18,0 16 9 WNW 1016,7 -
31.07.2020 00:00:00 25,1 18,2 16 9 WNW 1016,7 -
30.07.2020 23:00:00 24,9 19,4 21 11 WNW 1016,5 -
30.07.2020 22:00:00 24,3 20,6 28 15 W 1016,4 -
30.07.2020 21:00:00 24,6 20,4 16 9 W 1016,0 -
30.07.2020 20:00:00 25,7 19,5 16 9 W 1015,8 0,0
30.07.2020 19:00:00 27,5 19,2 8 4 W 1015,7 -
30.07.2020 18:00:00 28,7 19,3 21 11 W 1015,4 -
30.07.2020 17:00:00 29,6 19,3 15 8 W 1015,5 -
30.07.2020 16:00:00 30,1 18,5 15 8 W 1015,7 -
30.07.2020 15:00:00 30,6 18,0 2 1 WNW 1015,7 -
30.07.2020 14:00:00 31,0 17,6 16 9 WSW 1016,2 0,0
30.07.2020 13:00:00 31,3 17,9 8 4 W 1016,4 -
30.07.2020 12:00:00 30,0 17,1 4 2 WSW 1017,0 -
30.07.2020 11:00:00 28,7 17,5 9 5 WSW 1017,1 -
30.07.2020 10:00:00 28,4 16,0 2 1 WSW 1016,7 -
30.07.2020 09:00:00 26,8 14,1 5 3 W 1016,9 -
30.07.2020 08:00:00 26,2 12,3 9 5 W 1016,7 0,0
30.07.2020 07:00:00 25,8 11,2 5 3 WNW 1016,5 -
30.07.2020 06:00:00 24,6 11,2 11 6 WNW 1016,1 -
30.07.2020 05:00:00 24,3 10,9 15 8 WNW 1016,2 -
30.07.2020 04:00:00 24,4 12,6 16 9 WNW 1016,0 -

tt = temperature
td = dewpoint
ff = wind speed
dd = wind direction
ppp = reduced air pressure
rr = precipitation

Next stations